createdAt,value
2022-11-02T00:03:15.732Z,99.9
2022-11-02T00:05:21.529Z,99.9
2022-11-02T00:07:27.282Z,99.9
2022-11-02T00:09:33.080Z,99.9
2022-11-02T00:11:41.838Z,99.9
2022-11-02T00:13:49.196Z,99.9
2022-11-02T00:15:54.937Z,99.9
2022-11-02T00:18:00.735Z,99.9
2022-11-02T00:20:06.473Z,99.9
2022-11-02T00:22:12.239Z,99.9
2022-11-02T00:24:18.056Z,99.9
2022-11-02T00:26:26.776Z,99.9
2022-11-02T00:28:32.557Z,99.9
2022-11-02T00:32:44.142Z,99.9
2022-11-02T00:36:55.833Z,99.9
2022-11-02T00:39:01.499Z,99.9
2022-11-02T00:41:10.240Z,99.9
2022-11-02T00:45:21.826Z,99.9
2022-11-02T00:46:27.026Z,99.9
2022-11-02T00:48:31.969Z,99.9
2022-11-02T00:52:43.517Z,99.9
2022-11-02T00:54:52.300Z,99.9
2022-11-02T00:56:58.129Z,99.9
2022-11-02T00:59:03.879Z,99.9
2022-11-02T01:01:09.869Z,99.9
2022-11-02T01:03:15.414Z,99.9
2022-11-02T01:07:26.992Z,99.9
2022-11-02T01:09:35.753Z,99.9
2022-11-02T01:11:41.544Z,99.9
2022-11-02T01:13:47.312Z,99.9
2022-11-02T01:15:53.109Z,99.9
2022-11-02T01:17:58.897Z,99.9
2022-11-02T01:20:04.681Z,99.9
2022-11-02T01:22:10.464Z,99.9
2022-11-02T01:24:19.217Z,99.9
2022-11-02T01:26:24.981Z,99.9
2022-11-02T01:28:30.783Z,99.9
2022-11-02T01:30:36.551Z,99.9
2022-11-02T01:32:42.341Z,99.9
2022-11-02T01:34:48.123Z,99.9
2022-11-02T01:36:53.888Z,99.9
2022-11-02T01:39:02.638Z,99.9
2022-11-02T01:43:14.226Z,99.9
2022-11-02T01:45:45.510Z,99.9
2022-11-02T01:47:51.291Z,99.9
2022-11-02T01:49:57.098Z,99.9
2022-11-02T01:52:05.843Z,99.9
2022-11-02T01:54:11.620Z,99.9
2022-11-02T01:56:17.436Z,99.9
2022-11-02T01:58:23.182Z,99.9
2022-11-02T02:00:28.966Z,99.9
2022-11-02T02:02:34.934Z,99.9
2022-11-02T02:04:40.505Z,99.9
2022-11-02T02:06:49.285Z,99.9
2022-11-02T02:08:55.059Z,99.9
2022-11-02T02:11:00.859Z,99.9
2022-11-02T02:13:06.628Z,99.9
2022-11-02T02:17:18.177Z,99.9
2022-11-02T02:23:38.498Z,99.9
2022-11-02T02:27:50.014Z,99.9
2022-11-02T02:29:55.790Z,99.9
2022-11-02T02:32:01.582Z,99.9
2022-11-02T02:34:07.338Z,99.9
2022-11-02T02:36:16.071Z,99.9
2022-11-02T02:38:21.842Z,99.9
2022-11-02T02:40:27.611Z,99.9
2022-11-02T02:41:31.985Z,99.9
2022-11-02T02:43:37.742Z,99.9
2022-11-02T02:45:43.514Z,99.9
2022-11-02T02:47:49.277Z,99.9
2022-11-02T02:49:58.023Z,99.9
2022-11-02T02:52:03.782Z,99.9
2022-11-02T02:54:09.474Z,99.9
2022-11-02T02:56:15.235Z,99.9
2022-11-02T02:58:20.958Z,99.9
2022-11-02T03:02:32.594Z,99.9
2022-11-02T03:04:41.200Z,99.9
2022-11-02T03:06:46.971Z,99.9
2022-11-02T03:08:52.713Z,99.9
2022-11-02T03:10:58.472Z,99.9
2022-11-02T03:13:04.225Z,99.9
2022-11-02T03:15:09.970Z,99.9
2022-11-02T03:21:30.291Z,99.9
2022-11-02T03:25:41.793Z,99.9
2022-11-02T03:27:47.652Z,99.9
2022-11-02T03:29:53.391Z,99.9
2022-11-02T03:31:59.151Z,99.9
2022-11-02T03:34:07.920Z,99.9
2022-11-02T03:38:19.419Z,99.9
2022-11-02T03:39:23.796Z,99.9
2022-11-02T03:41:29.538Z,99.9
2022-11-02T03:43:35.299Z,99.9
2022-11-02T03:45:41.059Z,99.9
2022-11-02T03:47:49.794Z,99.9
2022-11-02T03:49:55.529Z,99.9
2022-11-02T03:52:01.291Z,99.9
2022-11-02T03:54:07.029Z,99.9
2022-11-02T03:56:12.766Z,99.9
2022-11-02T03:58:18.518Z,99.9
2022-11-02T04:00:24.290Z,99.9
2022-11-02T04:02:33.087Z,99.9
2022-11-02T04:04:38.764Z,99.9
2022-11-02T04:06:44.507Z,99.9
2022-11-02T04:08:50.249Z,99.9
2022-11-02T04:10:56.019Z,99.9
2022-11-02T04:13:01.757Z,99.9
2022-11-02T04:15:07.510Z,99.9
2022-11-02T04:17:16.376Z,99.9
2022-11-02T04:19:22.094Z,99.9
2022-11-02T04:21:27.873Z,99.9
2022-11-02T04:23:33.629Z,99.9
2022-11-02T04:25:39.384Z,99.9
2022-11-02T04:27:45.128Z,99.9
2022-11-02T04:29:50.882Z,99.9
2022-11-02T04:31:59.598Z,99.9
2022-11-02T04:34:05.372Z,99.9
2022-11-02T04:36:11.132Z,99.9
2022-11-02T04:37:15.635Z,99.9
2022-11-02T04:39:21.270Z,99.9
2022-11-02T04:41:27.002Z,99.9
2022-11-02T04:43:32.770Z,99.9
2022-11-02T04:45:41.497Z,99.9
2022-11-02T04:47:47.272Z,99.9
2022-11-02T04:49:53.038Z,99.9
2022-11-02T04:51:58.790Z,99.9
2022-11-02T04:54:04.542Z,99.9
2022-11-02T04:56:10.312Z,99.9
2022-11-02T04:58:16.092Z,99.9
2022-11-02T05:02:30.735Z,99.9
2022-11-02T05:04:36.361Z,99.9
2022-11-02T05:06:42.119Z,99.9
2022-11-02T05:08:47.906Z,99.9
2022-11-02T05:10:53.663Z,99.9
2022-11-02T05:12:59.432Z,99.9
2022-11-02T05:15:08.169Z,99.9
2022-11-02T05:17:14.105Z,99.9
2022-11-02T05:19:19.716Z,99.9
2022-11-02T05:21:25.473Z,99.9
2022-11-02T05:23:31.235Z,99.9
2022-11-02T05:25:37.037Z,99.9
2022-11-02T05:27:42.781Z,99.9
2022-11-02T05:29:51.528Z,99.9
2022-11-02T05:31:57.295Z,99.9
2022-11-02T05:34:03.107Z,99.9
2022-11-02T05:36:34.417Z,99.9
2022-11-02T05:40:45.964Z,99.9
2022-11-02T05:42:54.713Z,99.9
2022-11-02T05:47:06.395Z,99.9
2022-11-02T05:51:17.815Z,99.9
2022-11-02T05:53:23.581Z,99.9
2022-11-02T05:55:29.351Z,99.9
2022-11-02T05:57:38.101Z,99.9
2022-11-02T05:59:46.693Z,99.9
2022-11-02T06:01:49.708Z,99.9
2022-11-02T06:03:55.418Z,99.9
2022-11-02T06:06:01.195Z,99.9
2022-11-02T06:08:06.974Z,99.9
2022-11-02T06:10:12.722Z,99.9
2022-11-02T06:12:21.497Z,99.9
2022-11-02T06:14:27.258Z,99.9
2022-11-02T06:16:34.633Z,99.9
2022-11-02T06:18:40.368Z,99.9
2022-11-02T06:20:46.159Z,99.9
2022-11-02T06:24:57.654Z,99.9
2022-11-02T06:27:06.553Z,99.9
2022-11-02T06:29:12.193Z,99.9
2022-11-02T06:31:17.973Z,99.9
2022-11-02T06:32:22.312Z,99.9
2022-11-02T06:34:28.074Z,99.9
2022-11-02T06:36:33.851Z,99.9
2022-11-02T06:38:39.605Z,99.9
2022-11-02T06:40:48.369Z,99.9
2022-11-02T06:43:10.934Z,99.9
2022-11-02T06:44:59.885Z,99.9
2022-11-02T06:47:05.853Z,99.9
2022-11-02T06:49:11.405Z,99.9
2022-11-02T06:51:17.186Z,99.9
2022-11-02T06:53:22.947Z,99.9
2022-11-02T06:55:31.714Z,99.9
2022-11-02T06:57:37.466Z,99.9
2022-11-02T07:01:49.146Z,99.9
2022-11-02T07:03:54.744Z,99.9
2022-11-02T07:10:15.026Z,99.9
2022-11-02T07:12:22.985Z,99.9
2022-11-02T07:14:26.554Z,99.9
2022-11-02T07:16:32.326Z,99.9
2022-11-02T07:18:38.091Z,99.9
2022-11-02T07:22:49.591Z,99.9
2022-11-02T07:24:58.335Z,99.9
2022-11-02T07:27:04.101Z,99.9
2022-11-02T07:29:09.884Z,99.9
2022-11-02T07:30:14.402Z,99.9
2022-11-02T07:32:20.001Z,99.9
2022-11-02T07:34:25.762Z,99.9
2022-11-02T07:36:31.542Z,99.9
2022-11-02T07:40:46.070Z,99.9
2022-11-02T07:44:57.629Z,99.9
2022-11-02T07:49:09.203Z,99.9
2022-11-02T07:51:14.966Z,99.9
2022-11-02T07:53:23.731Z,99.9
2022-11-02T07:55:29.708Z,99.8
2022-11-02T07:57:35.308Z,99.6
2022-11-02T07:59:41.093Z,99.6
2022-11-02T08:01:46.923Z,99.2
2022-11-02T08:03:52.658Z,98.9
2022-11-02T08:05:58.464Z,98.9
2022-11-02T08:08:07.607Z,99.1
2022-11-02T08:10:13.019Z,99.2
2022-11-02T08:12:18.822Z,99.5
2022-11-02T08:14:24.612Z,99.8
2022-11-02T08:18:36.177Z,99.2
2022-11-02T08:22:50.722Z,99.2
2022-11-02T08:24:56.506Z,99.2
2022-11-02T08:28:06.946Z,99.9
2022-11-02T08:30:12.472Z,99.9
2022-11-02T08:32:18.249Z,99.9
2022-11-02T08:34:24.033Z,99.9
2022-11-02T08:36:32.811Z,99.9
2022-11-02T08:38:38.587Z,99.9
2022-11-02T08:40:44.403Z,99.9
2022-11-02T08:47:04.191Z,99.9
2022-11-02T08:49:07.547Z,99.9
2022-11-02T08:51:16.286Z,99.9
2022-11-02T08:53:22.078Z,99.9
2022-11-02T08:55:27.859Z,99.9
2022-11-02T08:57:33.632Z,99.9
2022-11-02T08:59:39.425Z,99.9
2022-11-02T09:03:50.996Z,99.9
2022-11-02T09:05:59.736Z,99.9
2022-11-02T09:08:05.905Z,99.9
2022-11-02T09:10:11.291Z,99.9
2022-11-02T09:12:17.053Z,99.9
2022-11-02T09:14:22.938Z,99.9
2022-11-02T09:16:28.630Z,99.9
2022-11-02T09:18:34.414Z,99.9
2022-11-02T09:22:48.911Z,99.9
2022-11-02T09:24:54.694Z,99.9
2022-11-02T09:27:25.994Z,99.9
2022-11-02T09:29:31.798Z,99.9
2022-11-02T09:31:37.595Z,99.9
2022-11-02T09:33:46.329Z,99.9
2022-11-02T09:35:52.100Z,99.9
2022-11-02T09:42:09.465Z,99
2022-11-02T09:44:15.241Z,96.8
2022-11-02T09:46:21.036Z,92.4
2022-11-02T09:48:30.203Z,90.1
2022-11-02T09:50:35.588Z,89.8
2022-11-02T09:52:41.372Z,89.7
2022-11-02T09:54:47.185Z,90.4
2022-11-02T09:58:58.755Z,90.6
2022-11-02T10:03:13.293Z,92.7
2022-11-02T10:05:19.112Z,93.5
2022-11-02T10:07:24.891Z,94.4
2022-11-02T10:09:30.712Z,94.7
2022-11-02T10:15:48.081Z,95.7
2022-11-02T10:17:56.836Z,96.2
2022-11-02T10:20:02.681Z,96.2
2022-11-02T10:22:08.421Z,96.3
2022-11-02T10:23:12.817Z,96.3
2022-11-02T10:25:18.608Z,96.3
2022-11-02T10:27:24.398Z,96.1
2022-11-02T10:29:30.202Z,96.1
2022-11-02T10:31:38.937Z,95.8
2022-11-02T10:33:44.742Z,95.8
2022-11-02T10:37:56.350Z,95.4
2022-11-02T10:42:07.918Z,95
2022-11-02T10:44:13.684Z,94.8
2022-11-02T10:48:28.239Z,94.1
2022-11-02T10:50:34.035Z,93.8
2022-11-02T10:52:39.831Z,93.7
2022-11-02T10:54:45.600Z,93.5
2022-11-02T10:56:51.413Z,93.5
2022-11-02T10:58:57.187Z,93.3
2022-11-02T11:01:05.984Z,93
2022-11-02T11:03:11.740Z,92.9
2022-11-02T11:05:17.530Z,92.8
2022-11-02T11:07:23.326Z,92.5
2022-11-02T11:09:29.108Z,92.4
2022-11-02T11:11:34.907Z,92.4
2022-11-02T11:15:49.475Z,92.6
2022-11-02T11:20:04.437Z,92.8
2022-11-02T11:21:05.431Z,93
2022-11-02T11:23:11.235Z,93
2022-11-02T11:25:17.030Z,93.1
2022-11-02T11:27:22.798Z,93.1
2022-11-02T11:29:31.581Z,93.3
2022-11-02T11:31:37.363Z,93.2
2022-11-02T11:33:43.214Z,93.2
2022-11-02T11:35:48.982Z,93
2022-11-02T11:37:54.784Z,92.7
2022-11-02T11:40:00.547Z,92.5
2022-11-02T11:48:26.707Z,92.2
2022-11-02T11:50:32.475Z,92
2022-11-02T11:52:38.288Z,91.8
2022-11-02T11:54:44.104Z,91.4
2022-11-02T11:56:49.902Z,91
2022-11-02T11:58:58.709Z,90.5
2022-11-02T12:01:07.505Z,90.4
2022-11-02T12:03:10.632Z,90.3
2022-11-02T12:05:16.072Z,89.9
2022-11-02T12:07:21.861Z,89.7
2022-11-02T12:09:27.674Z,89.4
2022-11-02T12:13:42.240Z,88.6
2022-11-02T12:15:48.041Z,88.4
2022-11-02T12:17:53.857Z,88.2
2022-11-02T12:21:05.596Z,87.4
2022-11-02T12:23:11.395Z,87.3
2022-11-02T12:25:17.173Z,87
2022-11-02T12:27:25.925Z,87
2022-11-02T12:29:31.738Z,86.9
2022-11-02T12:31:37.566Z,87.1
2022-11-02T12:37:54.963Z,86.4
2022-11-02T12:40:00.765Z,85.1
2022-11-02T12:42:09.514Z,84.2
2022-11-02T12:44:15.308Z,83.6
2022-11-02T12:46:21.119Z,83.2
2022-11-02T12:48:26.939Z,82.9
2022-11-02T12:50:32.745Z,82.5
2022-11-02T12:52:38.540Z,82
2022-11-02T12:54:44.341Z,81.7
2022-11-02T12:56:53.125Z,81.1
2022-11-02T12:58:58.930Z,80.9
2022-11-02T13:01:09.388Z,80.5
2022-11-02T13:03:10.539Z,80.6
2022-11-02T13:05:16.352Z,80.7
2022-11-02T13:07:22.166Z,80.9
2022-11-02T13:09:27.996Z,80.8
2022-11-02T13:11:36.743Z,80.8
2022-11-02T13:13:42.531Z,80.6
2022-11-02T13:15:48.356Z,80.8
2022-11-02T13:18:19.623Z,80.1
2022-11-02T13:20:25.449Z,80
2022-11-02T13:22:31.253Z,79.7
2022-11-02T13:24:40.021Z,79.1
2022-11-02T13:26:47.437Z,78.9
2022-11-02T13:28:51.646Z,79.2
2022-11-02T13:30:57.428Z,79.1
2022-11-02T13:33:03.619Z,79.3
2022-11-02T13:35:09.056Z,79.3
2022-11-02T13:37:14.863Z,79.7
2022-11-02T13:39:23.605Z,80.1
2022-11-02T13:41:29.418Z,80.4
2022-11-02T13:43:35.218Z,80.4
2022-11-02T13:45:41.033Z,80.6
2022-11-02T13:47:46.835Z,80.3
2022-11-02T13:49:52.635Z,80.2
2022-11-02T13:51:58.434Z,79.8
2022-11-02T13:54:07.198Z,79.4
2022-11-02T13:56:13.004Z,79.2
2022-11-02T13:58:18.812Z,79.1
2022-11-02T14:00:24.629Z,79.3
2022-11-02T14:02:30.453Z,79.3
2022-11-02T14:04:36.245Z,79.2
2022-11-02T14:11:00.921Z,78.5
2022-11-02T14:13:02.538Z,77.7
2022-11-02T14:14:06.767Z,77.3
2022-11-02T14:16:12.578Z,76.1
2022-11-02T14:18:18.381Z,75.6
2022-11-02T14:20:24.217Z,75.6
2022-11-02T14:22:32.959Z,75.1
2022-11-02T14:24:38.777Z,74.6
2022-11-02T14:26:44.579Z,74.5
2022-11-02T14:28:50.407Z,74.4
2022-11-02T14:30:56.384Z,74.3
2022-11-02T14:33:01.998Z,74.2
2022-11-02T14:35:07.772Z,74.9
2022-11-02T14:37:16.547Z,76.1
2022-11-02T14:39:22.368Z,76.5
2022-11-02T14:47:45.606Z,79.9
2022-11-02T14:49:51.445Z,80.2
2022-11-02T14:54:05.999Z,81.5
2022-11-02T14:58:18.643Z,82
2022-11-02T15:00:23.422Z,82.5
2022-11-02T15:02:29.205Z,82.8
2022-11-02T15:04:34.993Z,83.1
2022-11-02T15:06:43.793Z,83.8
2022-11-02T15:08:49.546Z,84.2
2022-11-02T15:10:55.363Z,84.3
2022-11-02T15:11:59.743Z,84.5
2022-11-02T15:14:05.546Z,84.7
2022-11-02T15:18:17.139Z,85.2
2022-11-02T15:20:25.895Z,86.1
2022-11-02T15:24:37.504Z,86.9
2022-11-02T15:28:49.118Z,87.9
2022-11-02T15:30:54.940Z,88.2
2022-11-02T15:33:02.101Z,88.6
2022-11-02T15:35:09.473Z,89.3
2022-11-02T15:37:15.277Z,89.6
2022-11-02T15:39:21.087Z,89.7
2022-11-02T15:41:26.903Z,90
2022-11-02T15:43:32.702Z,90.1
2022-11-02T15:45:48.780Z,90.4
2022-11-02T15:47:44.293Z,90.5
2022-11-02T15:51:58.883Z,90.9
2022-11-02T15:54:04.682Z,91
2022-11-02T15:56:10.467Z,91
2022-11-02T15:58:16.266Z,91.2
2022-11-02T16:00:22.048Z,91.3
2022-11-02T16:02:27.844Z,91.5
2022-11-02T16:04:36.573Z,91.8
2022-11-02T16:06:42.369Z,91.9
2022-11-02T16:08:48.183Z,92
2022-11-02T16:09:52.550Z,92.1
2022-11-02T16:11:58.337Z,92.2
2022-11-02T16:14:09.092Z,92.3
2022-11-02T16:16:09.934Z,92.4
2022-11-02T16:18:18.677Z,92.7
2022-11-02T16:20:24.479Z,92.8
2022-11-02T16:22:30.270Z,92.9
2022-11-02T16:26:41.853Z,93.1
2022-11-02T16:30:53.404Z,93.3
2022-11-02T16:33:02.165Z,93.5
2022-11-02T16:35:07.954Z,93.7
2022-11-02T16:37:13.751Z,93.8
2022-11-02T16:39:19.522Z,94
2022-11-02T16:41:25.327Z,94
2022-11-02T16:43:31.106Z,94.2
2022-11-02T16:47:45.645Z,94.6
2022-11-02T16:49:51.430Z,94.7
2022-11-02T16:51:57.210Z,94.8
2022-11-02T16:54:03.022Z,94.8
2022-11-02T16:56:08.791Z,94.9
2022-11-02T16:58:14.575Z,95
2022-11-02T17:00:20.394Z,95.1
2022-11-02T17:02:29.190Z,95.3
2022-11-02T17:04:34.961Z,95.4
2022-11-02T17:06:40.729Z,95.4
2022-11-02T17:09:12.044Z,95.4
2022-11-02T17:11:17.824Z,95.5
2022-11-02T17:13:24.285Z,95.6
2022-11-02T17:15:32.383Z,95.7
2022-11-02T17:19:43.934Z,96
2022-11-02T17:21:49.724Z,96.1
2022-11-02T17:23:55.502Z,96.1
2022-11-02T17:26:01.304Z,96.3
2022-11-02T17:28:07.449Z,96.4
2022-11-02T17:30:15.833Z,96.6
2022-11-02T17:32:21.605Z,96.7
2022-11-02T17:34:27.399Z,96.8
2022-11-02T17:36:33.180Z,96.8
2022-11-02T17:38:38.955Z,96.8
2022-11-02T17:40:44.731Z,96.8
2022-11-02T17:42:50.500Z,96.8
2022-11-02T17:44:59.329Z,96.7
2022-11-02T17:47:05.060Z,96.7
2022-11-02T17:49:10.816Z,96.7
2022-11-02T17:51:16.605Z,96.6
2022-11-02T17:53:22.393Z,96.5
2022-11-02T17:55:28.180Z,96.5
2022-11-02T17:57:33.959Z,96.4
2022-11-02T17:59:42.706Z,96.4
2022-11-02T18:03:54.284Z,96.4
2022-11-02T18:09:10.203Z,96.2
2022-11-02T18:13:24.759Z,96.1
2022-11-02T18:15:30.542Z,96.1
2022-11-02T18:17:36.309Z,96.1
2022-11-02T18:19:42.112Z,96
2022-11-02T18:21:49.476Z,96.1
2022-11-02T18:23:55.207Z,95.9
2022-11-02T18:26:00.986Z,95.9
2022-11-02T18:28:09.710Z,95.8
2022-11-02T18:30:15.494Z,95.8
2022-11-02T18:32:21.278Z,95.8
2022-11-02T18:34:27.031Z,95.9
2022-11-02T18:36:32.844Z,95.8
2022-11-02T18:40:44.363Z,95.7
2022-11-02T18:42:53.096Z,95.6
2022-11-02T18:44:58.885Z,95.6
2022-11-02T18:47:04.653Z,95.6
2022-11-02T18:49:10.422Z,95.6
2022-11-02T18:51:16.223Z,95.5
2022-11-02T18:53:21.986Z,95.5
2022-11-02T18:55:27.749Z,95.4
2022-11-02T18:57:36.478Z,95.4
2022-11-02T18:59:42.257Z,95.3
2022-11-02T19:01:48.337Z,95.3
2022-11-02T19:02:52.404Z,95.2
2022-11-02T19:04:58.189Z,95.2
2022-11-02T19:07:03.941Z,95.1
2022-11-02T19:11:18.461Z,94.8
2022-11-02T19:13:24.232Z,94.7
2022-11-02T19:15:29.999Z,94.6
2022-11-02T19:17:35.780Z,94.4
2022-11-02T19:19:41.544Z,94.2
2022-11-02T19:21:47.327Z,94.1
2022-11-02T19:23:53.102Z,93.9
2022-11-02T19:26:01.814Z,93.4
2022-11-02T19:28:08.093Z,93.2
2022-11-02T19:36:30.701Z,92.3
2022-11-02T19:38:36.464Z,92.1
2022-11-02T19:40:45.232Z,92
2022-11-02T19:42:50.987Z,91.9
2022-11-02T19:44:56.763Z,91.9
2022-11-02T19:47:02.735Z,91.8
2022-11-02T19:49:08.322Z,91.8
2022-11-02T19:51:15.962Z,91.8
2022-11-02T19:53:19.889Z,91.8
2022-11-02T19:55:28.621Z,91.7
2022-11-02T19:57:34.397Z,91.7
2022-11-02T19:59:40.199Z,91.7
2022-11-02T20:02:50.426Z,91.6
2022-11-02T20:04:56.104Z,91.6
2022-11-02T20:09:10.620Z,91.6
2022-11-02T20:13:22.201Z,91.8
2022-11-02T20:15:27.973Z,91.8
2022-11-02T20:17:42.179Z,91.9
2022-11-02T20:19:39.522Z,92
2022-11-02T20:21:45.324Z,92
2022-11-02T20:23:54.039Z,92.2
2022-11-02T20:25:59.840Z,92.2
2022-11-02T20:30:11.384Z,92.3
2022-11-02T20:32:17.178Z,92.3
2022-11-02T20:34:22.967Z,92.4
2022-11-02T20:36:28.758Z,92.4
2022-11-02T20:38:37.498Z,92.6
2022-11-02T20:40:43.263Z,92.7
2022-11-02T20:44:54.820Z,92.9
2022-11-02T20:47:00.629Z,92.9
2022-11-02T20:49:20.843Z,92.9
2022-11-02T20:51:12.185Z,93
2022-11-02T20:53:20.917Z,93.1
2022-11-02T20:55:26.686Z,93.2
2022-11-02T20:57:32.476Z,93.2
2022-11-02T21:00:03.905Z,93.2
2022-11-02T21:02:09.726Z,93.3
2022-11-02T21:04:20.313Z,93.3
2022-11-02T21:06:24.050Z,93.4
2022-11-02T21:08:29.913Z,93.4
2022-11-02T21:10:35.605Z,93.6
2022-11-02T21:12:41.398Z,93.6
2022-11-02T21:14:47.159Z,93.6
2022-11-02T21:16:52.936Z,93.7
2022-11-02T21:21:07.473Z,93.8
2022-11-02T21:23:13.230Z,93.9
2022-11-02T21:29:30.573Z,94
2022-11-02T21:33:42.127Z,93.9
2022-11-02T21:35:50.866Z,94
2022-11-02T21:37:56.650Z,94
2022-11-02T21:40:02.448Z,94
2022-11-02T21:42:08.210Z,94.1
2022-11-02T21:44:13.994Z,94.1
2022-11-02T21:46:19.952Z,94.1
2022-11-02T21:48:25.569Z,94
2022-11-02T21:50:34.257Z,94.1
2022-11-02T21:52:44.050Z,94.1
2022-11-02T21:54:45.828Z,94.1
2022-11-02T21:55:50.198Z,94.1
2022-11-02T21:57:55.952Z,94.2
2022-11-02T22:00:01.758Z,94.2
2022-11-02T22:02:07.657Z,94.2
2022-11-02T22:06:24.923Z,94.3
2022-11-02T22:10:33.552Z,94.4
2022-11-02T22:12:39.344Z,94.4
2022-11-02T22:14:45.201Z,94.4
2022-11-02T22:16:50.889Z,94.5
2022-11-02T22:18:59.662Z,94.4
2022-11-02T22:21:05.416Z,94.5
2022-11-02T22:23:11.194Z,94.4
2022-11-02T22:25:17.010Z,94.5
2022-11-02T22:27:22.764Z,94.5
2022-11-02T22:29:28.561Z,94.6
2022-11-02T22:31:34.341Z,94.6
2022-11-02T22:33:43.091Z,94.6
2022-11-02T22:35:48.862Z,94.6
2022-11-02T22:37:54.633Z,94.6
2022-11-02T22:40:00.421Z,94.6
2022-11-02T22:42:06.188Z,94.6
2022-11-02T22:44:11.983Z,94.6
2022-11-02T22:46:17.752Z,94.6
2022-11-02T22:48:26.524Z,94.7
2022-11-02T22:50:32.296Z,94.8
2022-11-02T22:52:38.147Z,94.8
2022-11-02T22:53:42.455Z,94.9
2022-11-02T22:57:58.783Z,94.8
2022-11-02T22:59:59.781Z,94.8
2022-11-02T23:02:08.606Z,94.8
2022-11-02T23:04:14.337Z,94.9
2022-11-02T23:06:20.092Z,95
2022-11-02T23:10:31.659Z,95.1
2022-11-02T23:12:37.430Z,95.1
2022-11-02T23:14:43.232Z,95.2
2022-11-02T23:16:51.955Z,95.2
2022-11-02T23:18:57.728Z,95.2
2022-11-02T23:21:03.517Z,95.2
2022-11-02T23:23:09.306Z,95.2
2022-11-02T23:25:15.311Z,95.2
2022-11-02T23:27:20.849Z,95.3
2022-11-02T23:29:26.610Z,95.2
2022-11-02T23:31:35.356Z,95.3
2022-11-02T23:33:41.120Z,95.3
2022-11-02T23:35:46.912Z,95.3
2022-11-02T23:37:52.692Z,95.3
2022-11-02T23:39:58.471Z,95.4
2022-11-02T23:42:04.254Z,95.4
2022-11-02T23:44:10.027Z,95.5
2022-11-02T23:46:18.750Z,95.6
2022-11-02T23:48:24.518Z,95.7
2022-11-02T23:50:30.308Z,95.8
2022-11-02T23:51:34.682Z,95.9
2022-11-02T23:53:40.443Z,95.9
